sensor_id;sensor_type;location;lat;lon;timestamp;P1;durP1;ratioP1;P2;durP2;ratioP2
25409;SDS011;13339;50.840;4.346;2022-11-15T00:00:20;25.43;;;18.93;;
25409;SDS011;13339;50.840;4.346;2022-11-15T00:02:46;25.27;;;18.80;;
25409;SDS011;13339;50.840;4.346;2022-11-15T00:05:11;26.37;;;18.90;;
25409;SDS011;13339;50.840;4.346;2022-11-15T00:07:37;24.83;;;19.43;;
25409;SDS011;13339;50.840;4.346;2022-11-15T00:10:03;26.47;;;18.63;;
25409;SDS011;13339;50.840;4.346;2022-11-15T00:12:28;29.10;;;18.80;;
25409;SDS011;13339;50.840;4.346;2022-11-15T00:14:54;28.93;;;19.10;;
25409;SDS011;13339;50.840;4.346;2022-11-15T00:17:20;24.73;;;18.87;;
25409;SDS011;13339;50.840;4.346;2022-11-15T00:19:45;24.60;;;18.80;;
25409;SDS011;13339;50.840;4.346;2022-11-15T00:22:11;25.47;;;18.87;;
25409;SDS011;13339;50.840;4.346;2022-11-15T00:24:37;32.63;;;19.77;;
25409;SDS011;13339;50.840;4.346;2022-11-15T00:27:02;31.70;;;19.70;;
25409;SDS011;13339;50.840;4.346;2022-11-15T00:29:28;31.67;;;20.17;;
25409;SDS011;13339;50.840;4.346;2022-11-15T00:31:53;27.70;;;19.07;;
25409;SDS011;13339;50.840;4.346;2022-11-15T00:34:19;30.03;;;20.07;;
25409;SDS011;13339;50.840;4.346;2022-11-15T00:36:44;30.37;;;20.30;;
25409;SDS011;13339;50.840;4.346;2022-11-15T00:39:10;28.73;;;20.07;;
25409;SDS011;13339;50.840;4.346;2022-11-15T00:41:36;28.87;;;20.87;;
25409;SDS011;13339;50.840;4.346;2022-11-15T00:44:02;29.53;;;20.50;;
25409;SDS011;13339;50.840;4.346;2022-11-15T00:46:28;32.07;;;20.13;;
25409;SDS011;13339;50.840;4.346;2022-11-15T00:48:53;27.57;;;20.33;;
25409;SDS011;13339;50.840;4.346;2022-11-15T00:51:19;27.90;;;20.27;;
25409;SDS011;13339;50.840;4.346;2022-11-15T00:53:44;29.00;;;20.00;;
25409;SDS011;13339;50.840;4.346;2022-11-15T00:56:10;30.77;;;20.53;;
25409;SDS011;13339;50.840;4.346;2022-11-15T00:58:35;32.80;;;20.93;;
25409;SDS011;13339;50.840;4.346;2022-11-15T01:01:08;31.87;;;20.80;;
25409;SDS011;13339;50.840;4.346;2022-11-15T01:03:36;31.70;;;21.70;;
25409;SDS011;13339;50.840;4.346;2022-11-15T01:06:03;33.47;;;21.53;;
25409;SDS011;13339;50.840;4.346;2022-11-15T01:08:30;31.47;;;21.43;;
25409;SDS011;13339;50.840;4.346;2022-11-15T01:10:59;42.97;;;24.00;;
25409;SDS011;13339;50.840;4.346;2022-11-15T01:13:29;31.20;;;22.33;;
25409;SDS011;13339;50.840;4.346;2022-11-15T01:15:58;34.37;;;21.77;;
25409;SDS011;13339;50.840;4.346;2022-11-15T01:18:24;30.10;;;20.93;;
25409;SDS011;13339;50.840;4.346;2022-11-15T01:20:49;38.03;;;22.73;;
25409;SDS011;13339;50.840;4.346;2022-11-15T01:23:15;34.30;;;21.57;;
25409;SDS011;13339;50.840;4.346;2022-11-15T01:25:40;34.03;;;21.77;;
25409;SDS011;13339;50.840;4.346;2022-11-15T01:28:06;31.13;;;21.50;;
25409;SDS011;13339;50.840;4.346;2022-11-15T01:30:32;32.23;;;22.13;;
25409;SDS011;13339;50.840;4.346;2022-11-15T01:32:57;32.70;;;22.03;;
25409;SDS011;13339;50.840;4.346;2022-11-15T01:35:23;37.07;;;21.27;;
25409;SDS011;13339;50.840;4.346;2022-11-15T01:37:48;30.33;;;21.50;;
25409;SDS011;13339;50.840;4.346;2022-11-15T01:40:14;32.10;;;20.57;;
25409;SDS011;13339;50.840;4.346;2022-11-15T01:42:40;28.13;;;20.37;;
25409;SDS011;13339;50.840;4.346;2022-11-15T01:45:05;28.20;;;19.87;;
25409;SDS011;13339;50.840;4.346;2022-11-15T01:47:38;31.63;;;20.37;;
25409;SDS011;13339;50.840;4.346;2022-11-15T01:50:10;32.73;;;19.67;;
25409;SDS011;13339;50.840;4.346;2022-11-15T01:52:39;30.13;;;20.10;;
25409;SDS011;13339;50.840;4.346;2022-11-15T01:55:07;31.60;;;19.10;;
25409;SDS011;13339;50.840;4.346;2022-11-15T01:57:34;27.70;;;18.83;;
25409;SDS011;13339;50.840;4.346;2022-11-15T02:00:00;24.80;;;17.77;;
25409;SDS011;13339;50.840;4.346;2022-11-15T02:02:28;21.53;;;17.80;;
25409;SDS011;13339;50.840;4.346;2022-11-15T02:04:53;29.10;;;17.07;;
25409;SDS011;13339;50.840;4.346;2022-11-15T02:07:19;24.80;;;17.20;;
25409;SDS011;13339;50.840;4.346;2022-11-15T02:09:47;26.47;;;18.53;;
25409;SDS011;13339;50.840;4.346;2022-11-15T02:12:15;28.67;;;17.57;;
25409;SDS011;13339;50.840;4.346;2022-11-15T02:14:44;25.53;;;18.30;;
25409;SDS011;13339;50.840;4.346;2022-11-15T02:31:18;24.73;;;17.07;;
25409;SDS011;13339;50.840;4.346;2022-11-15T02:33:59;25.57;;;17.93;;
25409;SDS011;13339;50.840;4.346;2022-11-15T02:39:35;26.70;;;17.23;;
25409;SDS011;13339;50.840;4.346;2022-11-15T02:42:29;20.43;;;15.83;;
25409;SDS011;13339;50.840;4.346;2022-11-15T02:45:24;22.10;;;15.20;;
25409;SDS011;13339;50.840;4.346;2022-11-15T02:47:54;23.45;;;15.95;;
25409;SDS011;13339;50.840;4.346;2022-11-15T02:50:25;22.80;;;16.63;;
25409;SDS011;13339;50.840;4.346;2022-11-15T02:52:53;22.40;;;17.03;;
25409;SDS011;13339;50.840;4.346;2022-11-15T02:55:34;24.17;;;16.90;;
25409;SDS011;13339;50.840;4.346;2022-11-15T03:00:47;24.33;;;15.53;;
25409;SDS011;13339;50.840;4.346;2022-11-15T03:11:21;21.53;;;13.20;;
25409;SDS011;13339;50.840;4.346;2022-11-15T03:17:00;19.30;;;13.33;;
25409;SDS011;13339;50.840;4.346;2022-11-15T03:19:53;19.17;;;13.37;;
25409;SDS011;13339;50.840;4.346;2022-11-15T03:22:21;23.73;;;13.43;;
25409;SDS011;13339;50.840;4.346;2022-11-15T03:24:57;20.17;;;12.80;;
25409;SDS011;13339;50.840;4.346;2022-11-15T03:27:27;18.47;;;12.57;;
25409;SDS011;13339;50.840;4.346;2022-11-15T03:29:58;16.20;;;10.73;;
25409;SDS011;13339;50.840;4.346;2022-11-15T03:32:30;19.37;;;11.03;;
25409;SDS011;13339;50.840;4.346;2022-11-15T03:35:02;16.63;;;10.67;;
25409;SDS011;13339;50.840;4.346;2022-11-15T03:40:24;15.47;;;10.60;;
25409;SDS011;13339;50.840;4.346;2022-11-15T03:42:59;13.80;;;9.10;;
25409;SDS011;13339;50.840;4.346;2022-11-15T03:45:41;14.97;;;9.90;;
25409;SDS011;13339;50.840;4.346;2022-11-15T03:50:39;14.73;;;9.37;;
25409;SDS011;13339;50.840;4.346;2022-11-15T03:53:06;17.00;;;9.33;;
25409;SDS011;13339;50.840;4.346;2022-11-15T03:55:32;16.97;;;8.73;;
25409;SDS011;13339;50.840;4.346;2022-11-15T03:57:58;15.70;;;8.57;;
25409;SDS011;13339;50.840;4.346;2022-11-15T04:00:25;13.17;;;9.17;;
25409;SDS011;13339;50.840;4.346;2022-11-15T04:02:51;12.00;;;8.33;;
25409;SDS011;13339;50.840;4.346;2022-11-15T04:05:17;15.90;;;8.73;;
25409;SDS011;13339;50.840;4.346;2022-11-15T04:07:42;12.97;;;8.70;;
25409;SDS011;13339;50.840;4.346;2022-11-15T04:10:09;11.83;;;7.90;;
25409;SDS011;13339;50.840;4.346;2022-11-15T04:12:36;13.57;;;8.27;;
25409;SDS011;13339;50.840;4.346;2022-11-15T04:17:43;12.20;;;7.77;;
25409;SDS011;13339;50.840;4.346;2022-11-15T04:20:20;11.93;;;7.83;;
25409;SDS011;13339;50.840;4.346;2022-11-15T04:23:16;15.37;;;7.80;;
25409;SDS011;13339;50.840;4.346;2022-11-15T04:26:06;13.37;;;7.47;;
25409;SDS011;13339;50.840;4.346;2022-11-15T04:28:35;16.37;;;7.97;;
25409;SDS011;13339;50.840;4.346;2022-11-15T04:31:21;10.20;;;7.57;;
25409;SDS011;13339;50.840;4.346;2022-11-15T04:33:46;13.27;;;7.87;;
25409;SDS011;13339;50.840;4.346;2022-11-15T04:36:12;13.17;;;6.83;;
25409;SDS011;13339;50.840;4.346;2022-11-15T04:38:56;8.83;;;6.83;;
25409;SDS011;13339;50.840;4.346;2022-11-15T04:41:22;10.77;;;7.23;;
25409;SDS011;13339;50.840;4.346;2022-11-15T04:43:48;11.03;;;7.47;;
25409;SDS011;13339;50.840;4.346;2022-11-15T04:46:13;14.03;;;7.83;;
25409;SDS011;13339;50.840;4.346;2022-11-15T04:48:39;12.17;;;6.40;;
25409;SDS011;13339;50.840;4.346;2022-11-15T04:51:04;12.10;;;6.97;;
25409;SDS011;13339;50.840;4.346;2022-11-15T04:53:30;11.90;;;6.57;;
25409;SDS011;13339;50.840;4.346;2022-11-15T04:55:56;11.70;;;6.63;;
25409;SDS011;13339;50.840;4.346;2022-11-15T04:58:21;14.97;;;7.47;;
25409;SDS011;13339;50.840;4.346;2022-11-15T05:00:47;12.60;;;6.80;;
25409;SDS011;13339;50.840;4.346;2022-11-15T05:03:12;15.00;;;6.17;;
25409;SDS011;13339;50.840;4.346;2022-11-15T05:05:57;15.10;;;6.73;;
25409;SDS011;13339;50.840;4.346;2022-11-15T05:08:23;8.93;;;6.20;;
25409;SDS011;13339;50.840;4.346;2022-11-15T05:10:49;9.63;;;5.50;;
25409;SDS011;13339;50.840;4.346;2022-11-15T05:13:15;14.13;;;5.57;;
25409;SDS011;13339;50.840;4.346;2022-11-15T05:15:40;9.77;;;5.43;;
25409;SDS011;13339;50.840;4.346;2022-11-15T05:18:06;10.87;;;5.30;;
25409;SDS011;13339;50.840;4.346;2022-11-15T05:20:31;16.23;;;5.40;;
25409;SDS011;13339;50.840;4.346;2022-11-15T05:22:57;10.00;;;4.97;;
25409;SDS011;13339;50.840;4.346;2022-11-15T05:25:23;12.87;;;6.10;;
25409;SDS011;13339;50.840;4.346;2022-11-15T05:27:48;7.63;;;5.47;;
25409;SDS011;13339;50.840;4.346;2022-11-15T05:30:14;12.27;;;5.20;;
25409;SDS011;13339;50.840;4.346;2022-11-15T05:32:40;17.67;;;5.60;;
25409;SDS011;13339;50.840;4.346;2022-11-15T05:35:06;8.37;;;4.80;;
25409;SDS011;13339;50.840;4.346;2022-11-15T05:37:37;8.80;;;4.87;;
25409;SDS011;13339;50.840;4.346;2022-11-15T05:40:02;10.57;;;4.77;;
25409;SDS011;13339;50.840;4.346;2022-11-15T05:42:28;16.30;;;5.23;;
25409;SDS011;13339;50.840;4.346;2022-11-15T05:44:54;9.47;;;4.77;;
25409;SDS011;13339;50.840;4.346;2022-11-15T05:47:23;13.67;;;4.93;;
25409;SDS011;13339;50.840;4.346;2022-11-15T05:49:52;7.17;;;4.47;;
25409;SDS011;13339;50.840;4.346;2022-11-15T05:52:20;13.87;;;4.90;;
25409;SDS011;13339;50.840;4.346;2022-11-15T05:54:49;12.90;;;5.53;;
25409;SDS011;13339;50.840;4.346;2022-11-15T05:57:16;6.90;;;4.90;;
25409;SDS011;13339;50.840;4.346;2022-11-15T05:59:42;7.87;;;4.80;;
25409;SDS011;13339;50.840;4.346;2022-11-15T06:02:08;8.70;;;5.00;;
25409;SDS011;13339;50.840;4.346;2022-11-15T06:04:34;12.03;;;5.23;;
25409;SDS011;13339;50.840;4.346;2022-11-15T06:07:00;13.43;;;5.40;;
25409;SDS011;13339;50.840;4.346;2022-11-15T06:09:25;11.20;;;5.10;;
25409;SDS011;13339;50.840;4.346;2022-11-15T06:11:51;12.50;;;5.60;;
25409;SDS011;13339;50.840;4.346;2022-11-15T06:14:16;12.60;;;5.90;;
25409;SDS011;13339;50.840;4.346;2022-11-15T06:16:43;12.70;;;5.53;;
25409;SDS011;13339;50.840;4.346;2022-11-15T06:19:08;13.37;;;6.30;;
25409;SDS011;13339;50.840;4.346;2022-11-15T06:21:34;9.33;;;5.40;;
25409;SDS011;13339;50.840;4.346;2022-11-15T06:24:00;12.10;;;5.90;;
25409;SDS011;13339;50.840;4.346;2022-11-15T06:26:26;12.40;;;5.47;;
25409;SDS011;13339;50.840;4.346;2022-11-15T06:28:51;13.97;;;5.77;;
25409;SDS011;13339;50.840;4.346;2022-11-15T06:31:17;10.87;;;5.40;;
25409;SDS011;13339;50.840;4.346;2022-11-15T06:33:43;9.37;;;5.17;;
25409;SDS011;13339;50.840;4.346;2022-11-15T06:36:09;9.17;;;5.20;;
25409;SDS011;13339;50.840;4.346;2022-11-15T06:38:38;10.87;;;4.67;;
25409;SDS011;13339;50.840;4.346;2022-11-15T06:41:05;11.63;;;4.93;;
25409;SDS011;13339;50.840;4.346;2022-11-15T06:43:33;6.23;;;4.63;;
25409;SDS011;13339;50.840;4.346;2022-11-15T06:46:00;9.80;;;5.43;;
25409;SDS011;13339;50.840;4.346;2022-11-15T06:48:26;13.10;;;5.20;;
25409;SDS011;13339;50.840;4.346;2022-11-15T06:50:53;8.67;;;5.30;;
25409;SDS011;13339;50.840;4.346;2022-11-15T06:53:20;8.13;;;4.27;;
25409;SDS011;13339;50.840;4.346;2022-11-15T06:55:46;8.40;;;4.53;;
25409;SDS011;13339;50.840;4.346;2022-11-15T06:58:12;11.03;;;4.93;;
25409;SDS011;13339;50.840;4.346;2022-11-15T07:00:37;11.47;;;4.97;;
25409;SDS011;13339;50.840;4.346;2022-11-15T07:03:03;11.00;;;4.60;;
25409;SDS011;13339;50.840;4.346;2022-11-15T07:05:28;10.50;;;4.90;;
25409;SDS011;13339;50.840;4.346;2022-11-15T07:07:55;10.97;;;4.60;;
25409;SDS011;13339;50.840;4.346;2022-11-15T07:10:22;9.70;;;4.43;;
25409;SDS011;13339;50.840;4.346;2022-11-15T07:12:52;6.03;;;4.20;;
25409;SDS011;13339;50.840;4.346;2022-11-15T07:15:21;7.93;;;4.57;;
25409;SDS011;13339;50.840;4.346;2022-11-15T07:17:48;9.07;;;4.67;;
25409;SDS011;13339;50.840;4.346;2022-11-15T07:20:15;9.37;;;4.47;;
25409;SDS011;13339;50.840;4.346;2022-11-15T07:22:41;12.70;;;4.27;;
25409;SDS011;13339;50.840;4.346;2022-11-15T07:25:07;11.50;;;4.50;;
25409;SDS011;13339;50.840;4.346;2022-11-15T07:27:33;10.93;;;4.83;;
25409;SDS011;13339;50.840;4.346;2022-11-15T07:29:59;7.67;;;4.50;;
25409;SDS011;13339;50.840;4.346;2022-11-15T07:32:25;10.87;;;4.10;;
25409;SDS011;13339;50.840;4.346;2022-11-15T07:34:51;16.17;;;4.50;;
25409;SDS011;13339;50.840;4.346;2022-11-15T07:37:16;12.43;;;5.00;;
25409;SDS011;13339;50.840;4.346;2022-11-15T07:39:42;7.63;;;4.50;;
25409;SDS011;13339;50.840;4.346;2022-11-15T07:42:08;14.63;;;4.57;;
25409;SDS011;13339;50.840;4.346;2022-11-15T07:44:53;8.37;;;4.73;;
25409;SDS011;13339;50.840;4.346;2022-11-15T07:47:18;15.77;;;5.47;;
25409;SDS011;13339;50.840;4.346;2022-11-15T07:49:45;14.20;;;5.00;;
25409;SDS011;13339;50.840;4.346;2022-11-15T07:52:11;12.27;;;4.60;;
25409;SDS011;13339;50.840;4.346;2022-11-15T07:54:37;10.73;;;4.33;;
25409;SDS011;13339;50.840;4.346;2022-11-15T07:57:03;13.43;;;5.00;;
25409;SDS011;13339;50.840;4.346;2022-11-15T07:59:29;10.80;;;4.90;;
25409;SDS011;13339;50.840;4.346;2022-11-15T08:01:54;6.93;;;4.97;;
25409;SDS011;13339;50.840;4.346;2022-11-15T08:04:21;11.33;;;4.50;;
25409;SDS011;13339;50.840;4.346;2022-11-15T08:06:47;7.50;;;4.40;;
25409;SDS011;13339;50.840;4.346;2022-11-15T08:09:12;13.50;;;4.67;;
25409;SDS011;13339;50.840;4.346;2022-11-15T08:11:38;14.00;;;3.97;;
25409;SDS011;13339;50.840;4.346;2022-11-15T08:14:04;11.57;;;3.73;;
25409;SDS011;13339;50.840;4.346;2022-11-15T08:16:30;10.20;;;3.70;;
25409;SDS011;13339;50.840;4.346;2022-11-15T08:18:56;8.13;;;3.60;;
25409;SDS011;13339;50.840;4.346;2022-11-15T08:21:21;7.40;;;3.90;;
25409;SDS011;13339;50.840;4.346;2022-11-15T08:23:47;12.80;;;3.70;;
25409;SDS011;13339;50.840;4.346;2022-11-15T08:26:13;9.23;;;3.40;;
25409;SDS011;13339;50.840;4.346;2022-11-15T08:28:39;12.30;;;3.63;;
25409;SDS011;13339;50.840;4.346;2022-11-15T08:31:05;7.73;;;3.63;;
25409;SDS011;13339;50.840;4.346;2022-11-15T08:33:31;9.23;;;3.50;;
25409;SDS011;13339;50.840;4.346;2022-11-15T08:35:58;6.73;;;3.33;;
25409;SDS011;13339;50.840;4.346;2022-11-15T08:38:25;12.40;;;3.37;;
25409;SDS011;13339;50.840;4.346;2022-11-15T08:40:59;7.13;;;2.60;;
25409;SDS011;13339;50.840;4.346;2022-11-15T08:43:28;10.50;;;3.63;;
25409;SDS011;13339;50.840;4.346;2022-11-15T08:45:57;9.53;;;2.83;;
25409;SDS011;13339;50.840;4.346;2022-11-15T08:48:23;9.37;;;3.10;;
25409;SDS011;13339;50.840;4.346;2022-11-15T08:50:52;7.93;;;2.60;;
25409;SDS011;13339;50.840;4.346;2022-11-15T08:53:20;6.53;;;2.80;;
25409;SDS011;13339;50.840;4.346;2022-11-15T08:55:45;8.17;;;2.97;;
25409;SDS011;13339;50.840;4.346;2022-11-15T08:58:11;7.60;;;2.87;;
25409;SDS011;13339;50.840;4.346;2022-11-15T09:00:36;8.10;;;2.63;;
25409;SDS011;13339;50.840;4.346;2022-11-15T09:03:06;4.17;;;2.37;;
25409;SDS011;13339;50.840;4.346;2022-11-15T09:05:35;10.77;;;3.20;;
25409;SDS011;13339;50.840;4.346;2022-11-15T09:08:02;10.83;;;3.07;;
25409;SDS011;13339;50.840;4.346;2022-11-15T09:10:28;11.90;;;3.85;;
25409;SDS011;13339;50.840;4.346;2022-11-15T09:12:53;7.80;;;3.03;;
25409;SDS011;13339;50.840;4.346;2022-11-15T09:15:21;9.33;;;2.87;;
25409;SDS011;13339;50.840;4.346;2022-11-15T09:17:46;8.50;;;2.70;;
25409;SDS011;13339;50.840;4.346;2022-11-15T09:20:12;11.33;;;2.67;;
25409;SDS011;13339;50.840;4.346;2022-11-15T09:22:38;12.13;;;2.73;;
25409;SDS011;13339;50.840;4.346;2022-11-15T09:25:04;8.43;;;2.83;;
25409;SDS011;13339;50.840;4.346;2022-11-15T09:27:30;7.37;;;2.30;;
25409;SDS011;13339;50.840;4.346;2022-11-15T09:29:56;5.13;;;2.37;;
25409;SDS011;13339;50.840;4.346;2022-11-15T09:32:22;7.07;;;2.50;;
25409;SDS011;13339;50.840;4.346;2022-11-15T09:34:48;7.87;;;2.40;;
25409;SDS011;13339;50.840;4.346;2022-11-15T09:37:14;15.33;;;2.57;;
25409;SDS011;13339;50.840;4.346;2022-11-15T09:39:40;10.27;;;2.53;;
25409;SDS011;13339;50.840;4.346;2022-11-15T09:50:42;5.50;;;2.20;;
25409;SDS011;13339;50.840;4.346;2022-11-15T09:53:12;10.00;;;2.37;;
25409;SDS011;13339;50.840;4.346;2022-11-15T09:55:50;5.63;;;2.03;;
25409;SDS011;13339;50.840;4.346;2022-11-15T09:58:37;10.60;;;2.70;;
25409;SDS011;13339;50.840;4.346;2022-11-15T10:04:11;9.17;;;2.00;;
25409;SDS011;13339;50.840;4.346;2022-11-15T10:06:40;11.30;;;2.10;;
25409;SDS011;13339;50.840;4.346;2022-11-15T10:11:41;6.87;;;1.90;;
25409;SDS011;13339;50.840;4.346;2022-11-15T10:14:14;11.70;;;2.50;;
25409;SDS011;13339;50.840;4.346;2022-11-15T10:19:39;10.30;;;2.50;;
25409;SDS011;13339;50.840;4.346;2022-11-15T10:24:52;10.57;;;2.43;;
25409;SDS011;13339;50.840;4.346;2022-11-15T10:27:32;10.90;;;2.00;;
25409;SDS011;13339;50.840;4.346;2022-11-15T10:29:59;7.90;;;2.00;;
25409;SDS011;13339;50.840;4.346;2022-11-15T10:32:25;7.53;;;2.20;;
25409;SDS011;13339;50.840;4.346;2022-11-15T10:34:52;13.10;;;2.50;;
25409;SDS011;13339;50.840;4.346;2022-11-15T10:37:27;10.43;;;2.37;;
25409;SDS011;13339;50.840;4.346;2022-11-15T10:40:18;9.13;;;1.87;;
25409;SDS011;13339;50.840;4.346;2022-11-15T10:42:44;23.13;;;2.40;;
25409;SDS011;13339;50.840;4.346;2022-11-15T10:45:27;8.83;;;1.93;;
25409;SDS011;13339;50.840;4.346;2022-11-15T10:47:59;10.87;;;2.30;;
25409;SDS011;13339;50.840;4.346;2022-11-15T10:50:45;4.40;;;1.70;;
25409;SDS011;13339;50.840;4.346;2022-11-15T10:53:16;11.60;;;2.37;;
25409;SDS011;13339;50.840;4.346;2022-11-15T10:55:54;10.37;;;1.87;;
25409;SDS011;13339;50.840;4.346;2022-11-15T10:58:34;4.93;;;1.70;;
25409;SDS011;13339;50.840;4.346;2022-11-15T11:01:09;4.40;;;1.67;;
25409;SDS011;13339;50.840;4.346;2022-11-15T11:03:43;6.40;;;2.07;;
25409;SDS011;13339;50.840;4.346;2022-11-15T11:06:30;8.60;;;2.07;;
25409;SDS011;13339;50.840;4.346;2022-11-15T11:09:18;6.37;;;2.17;;
25409;SDS011;13339;50.840;4.346;2022-11-15T11:12:01;10.33;;;1.60;;
25409;SDS011;13339;50.840;4.346;2022-11-15T11:14:29;8.10;;;2.37;;
25409;SDS011;13339;50.840;4.346;2022-11-15T11:22:12;4.70;;;1.63;;
25409;SDS011;13339;50.840;4.346;2022-11-15T11:24:54;5.03;;;2.13;;
25409;SDS011;13339;50.840;4.346;2022-11-15T11:30:35;7.70;;;2.13;;
25409;SDS011;13339;50.840;4.346;2022-11-15T11:33:07;8.27;;;2.37;;
25409;SDS011;13339;50.840;4.346;2022-11-15T11:36:10;6.80;;;1.53;;
25409;SDS011;13339;50.840;4.346;2022-11-15T11:41:42;7.73;;;3.00;;
25409;SDS011;13339;50.840;4.346;2022-11-15T11:46:56;6.00;;;2.23;;
25409;SDS011;13339;50.840;4.346;2022-11-15T11:52:13;7.00;;;1.77;;
25409;SDS011;13339;50.840;4.346;2022-11-15T11:55:20;7.70;;;1.93;;
25409;SDS011;13339;50.840;4.346;2022-11-15T12:00:47;5.50;;;2.07;;
25409;SDS011;13339;50.840;4.346;2022-11-15T12:05:51;5.77;;;2.23;;
25409;SDS011;13339;50.840;4.346;2022-11-15T12:11:20;7.33;;;1.97;;
25409;SDS011;13339;50.840;4.346;2022-11-15T12:13:53;10.97;;;2.17;;
25409;SDS011;13339;50.840;4.346;2022-11-15T12:16:25;5.80;;;1.53;;
25409;SDS011;13339;50.840;4.346;2022-11-15T12:18:53;5.07;;;1.60;;
25409;SDS011;13339;50.840;4.346;2022-11-15T12:24:33;7.13;;;1.87;;
25409;SDS011;13339;50.840;4.346;2022-11-15T12:26:57;9.83;;;2.10;;
25409;SDS011;13339;50.840;4.346;2022-11-15T12:29:41;7.53;;;1.87;;
25409;SDS011;13339;50.840;4.346;2022-11-15T12:32:35;8.37;;;1.97;;
25409;SDS011;13339;50.840;4.346;2022-11-15T12:35:01;5.13;;;1.70;;
25409;SDS011;13339;50.840;4.346;2022-11-15T12:37:47;5.97;;;1.77;;
25409;SDS011;13339;50.840;4.346;2022-11-15T12:45:46;11.00;;;2.00;;
25409;SDS011;13339;50.840;4.346;2022-11-15T12:58:47;6.47;;;2.10;;
25409;SDS011;13339;50.840;4.346;2022-11-15T13:01:55;5.90;;;1.77;;
25409;SDS011;13339;50.840;4.346;2022-11-15T13:12:06;4.23;;;1.83;;
25409;SDS011;13339;50.840;4.346;2022-11-15T13:14:59;5.63;;;1.47;;
25409;SDS011;13339;50.840;4.346;2022-11-15T13:17:38;5.73;;;1.83;;
25409;SDS011;13339;50.840;4.346;2022-11-15T13:30:58;9.00;;;1.80;;
25409;SDS011;13339;50.840;4.346;2022-11-15T13:33:33;5.47;;;1.60;;
25409;SDS011;13339;50.840;4.346;2022-11-15T13:36:01;3.23;;;1.13;;
25409;SDS011;13339;50.840;4.346;2022-11-15T13:38:33;8.87;;;1.60;;
25409;SDS011;13339;50.840;4.346;2022-11-15T13:41:11;4.17;;;1.70;;
25409;SDS011;13339;50.840;4.346;2022-11-15T13:43:45;3.07;;;1.30;;
25409;SDS011;13339;50.840;4.346;2022-11-15T13:48:52;4.47;;;1.40;;
25409;SDS011;13339;50.840;4.346;2022-11-15T13:51:22;5.83;;;1.60;;
25409;SDS011;13339;50.840;4.346;2022-11-15T13:53:54;8.40;;;1.53;;
25409;SDS011;13339;50.840;4.346;2022-11-15T13:56:23;3.60;;;1.60;;
25409;SDS011;13339;50.840;4.346;2022-11-15T13:58:52;4.73;;;1.80;;
25409;SDS011;13339;50.840;4.346;2022-11-15T14:01:19;4.33;;;2.00;;
25409;SDS011;13339;50.840;4.346;2022-11-15T14:03:48;4.63;;;1.60;;
25409;SDS011;13339;50.840;4.346;2022-11-15T14:06:25;4.73;;;1.53;;
25409;SDS011;13339;50.840;4.346;2022-11-15T14:08:58;2.40;;;1.50;;
25409;SDS011;13339;50.840;4.346;2022-11-15T14:11:23;6.93;;;1.70;;
25409;SDS011;13339;50.840;4.346;2022-11-15T14:16:37;6.30;;;2.10;;
25409;SDS011;13339;50.840;4.346;2022-11-15T14:19:05;4.77;;;1.97;;
25409;SDS011;13339;50.840;4.346;2022-11-15T14:21:34;5.27;;;2.00;;
25409;SDS011;13339;50.840;4.346;2022-11-15T14:24:19;6.73;;;2.10;;
25409;SDS011;13339;50.840;4.346;2022-11-15T14:26:46;5.60;;;1.70;;
25409;SDS011;13339;50.840;4.346;2022-11-15T14:29:28;3.70;;;1.77;;
25409;SDS011;13339;50.840;4.346;2022-11-15T14:34:53;2.60;;;1.80;;
25409;SDS011;13339;50.840;4.346;2022-11-15T14:37:22;4.10;;;2.17;;
25409;SDS011;13339;50.840;4.346;2022-11-15T14:39:48;2.30;;;1.67;;
25409;SDS011;13339;50.840;4.346;2022-11-15T14:42:14;4.30;;;2.00;;
25409;SDS011;13339;50.840;4.346;2022-11-15T14:44:40;5.47;;;2.03;;
25409;SDS011;13339;50.840;4.346;2022-11-15T14:47:06;8.70;;;2.20;;
25409;SDS011;13339;50.840;4.346;2022-11-15T14:49:31;3.37;;;2.00;;
25409;SDS011;13339;50.840;4.346;2022-11-15T14:51:57;4.70;;;1.90;;
25409;SDS011;13339;50.840;4.346;2022-11-15T14:54:22;3.40;;;2.30;;
25409;SDS011;13339;50.840;4.346;2022-11-15T14:56:48;5.47;;;2.28;;
25409;SDS011;13339;50.840;4.346;2022-11-15T14:59:13;3.83;;;2.07;;
25409;SDS011;13339;50.840;4.346;2022-11-15T15:01:39;7.17;;;2.07;;
25409;SDS011;13339;50.840;4.346;2022-11-15T15:04:05;4.67;;;2.30;;
25409;SDS011;13339;50.840;4.346;2022-11-15T15:06:30;4.43;;;2.10;;
25409;SDS011;13339;50.840;4.346;2022-11-15T15:08:56;3.20;;;1.80;;
25409;SDS011;13339;50.840;4.346;2022-11-15T15:11:25;7.43;;;2.17;;
25409;SDS011;13339;50.840;4.346;2022-11-15T15:13:53;20.10;;;3.23;;
25409;SDS011;13339;50.840;4.346;2022-11-15T15:16:22;3.47;;;2.10;;
25409;SDS011;13339;50.840;4.346;2022-11-15T15:18:51;4.90;;;2.20;;
25409;SDS011;13339;50.840;4.346;2022-11-15T15:21:20;5.73;;;2.37;;
25409;SDS011;13339;50.840;4.346;2022-11-15T15:23:48;6.63;;;2.70;;
25409;SDS011;13339;50.840;4.346;2022-11-15T15:26:14;3.90;;;2.67;;
25409;SDS011;13339;50.840;4.346;2022-11-15T15:28:40;3.53;;;2.30;;
25409;SDS011;13339;50.840;4.346;2022-11-15T15:31:05;3.60;;;2.27;;
25409;SDS011;13339;50.840;4.346;2022-11-15T15:33:32;2.53;;;2.10;;
25409;SDS011;13339;50.840;4.346;2022-11-15T15:35:57;6.90;;;2.57;;
25409;SDS011;13339;50.840;4.346;2022-11-15T15:38:24;3.83;;;2.20;;
25409;SDS011;13339;50.840;4.346;2022-11-15T15:40:49;4.30;;;2.30;;
25409;SDS011;13339;50.840;4.346;2022-11-15T15:43:15;4.47;;;2.50;;
25409;SDS011;13339;50.840;4.346;2022-11-15T15:45:40;3.47;;;2.53;;
25409;SDS011;13339;50.840;4.346;2022-11-15T15:48:13;5.97;;;2.63;;
25409;SDS011;13339;50.840;4.346;2022-11-15T15:50:40;4.87;;;2.70;;
25409;SDS011;13339;50.840;4.346;2022-11-15T15:53:08;3.53;;;2.77;;
25409;SDS011;13339;50.840;4.346;2022-11-15T15:55:38;3.43;;;2.40;;
25409;SDS011;13339;50.840;4.346;2022-11-15T15:58:04;3.10;;;2.33;;
25409;SDS011;13339;50.840;4.346;2022-11-15T16:00:30;4.37;;;3.00;;
25409;SDS011;13339;50.840;4.346;2022-11-15T16:02:57;4.37;;;2.40;;
25409;SDS011;13339;50.840;4.346;2022-11-15T16:05:23;6.63;;;2.57;;
25409;SDS011;13339;50.840;4.346;2022-11-15T16:07:49;4.40;;;2.80;;
25409;SDS011;13339;50.840;4.346;2022-11-15T16:10:25;4.77;;;2.97;;
25409;SDS011;13339;50.840;4.346;2022-11-15T16:12:56;6.13;;;3.00;;
25409;SDS011;13339;50.840;4.346;2022-11-15T16:15:23;4.17;;;2.77;;
25409;SDS011;13339;50.840;4.346;2022-11-15T16:17:52;3.93;;;2.60;;
25409;SDS011;13339;50.840;4.346;2022-11-15T16:20:36;3.87;;;2.67;;
25409;SDS011;13339;50.840;4.346;2022-11-15T16:23:03;6.00;;;2.93;;
25409;SDS011;13339;50.840;4.346;2022-11-15T16:25:31;4.37;;;3.03;;
25409;SDS011;13339;50.840;4.346;2022-11-15T16:28:01;3.20;;;2.80;;
25409;SDS011;13339;50.840;4.346;2022-11-15T16:30:27;3.60;;;2.63;;
25409;SDS011;13339;50.840;4.346;2022-11-15T16:32:53;3.57;;;2.87;;
25409;SDS011;13339;50.840;4.346;2022-11-15T16:35:18;3.70;;;3.13;;
25409;SDS011;13339;50.840;4.346;2022-11-15T16:37:44;4.50;;;3.17;;
25409;SDS011;13339;50.840;4.346;2022-11-15T16:40:25;5.67;;;3.20;;
25409;SDS011;13339;50.840;4.346;2022-11-15T16:42:56;4.23;;;2.97;;
25409;SDS011;13339;50.840;4.346;2022-11-15T16:45:27;4.97;;;3.50;;
25409;SDS011;13339;50.840;4.346;2022-11-15T16:47:53;4.90;;;3.27;;
25409;SDS011;13339;50.840;4.346;2022-11-15T16:50:24;7.47;;;4.10;;
25409;SDS011;13339;50.840;4.346;2022-11-15T16:52:52;6.20;;;3.37;;
25409;SDS011;13339;50.840;4.346;2022-11-15T16:55:19;3.80;;;3.10;;
25409;SDS011;13339;50.840;4.346;2022-11-15T16:57:46;5.83;;;3.77;;
25409;SDS011;13339;50.840;4.346;2022-11-15T17:00:13;4.53;;;3.20;;